Terminal Aerodrome Forecast
Issued by NWS

Home | Current Version | Previous Version | Text Only | Print | Product List | Glossary On
Versions: 1 2 3 4 5 6 7 8 9 10 11 12 13 14
825
FTUS45 KABQ 261122
TAFLVS
TAF
KLVS 261122Z 2612/2712 19005KT P6SM SCT130
     FM262100 26010KT P6SM VCSH SCT090 BKN140
     FM262300 16010KT P6SM VCTS SCT070CB BKN100
     FM270100 34005KT P6SM VCSH BKN060
     FM270900 VRB05KT P6SM SCT060 BKN100=

USA.gov is the U.S. government's official web portal to all federal, state and local government web resources and services.